Flight Track Log - Related Links

Times and Time Zones

All times are in EDT time to prevent confusion due to time zone crossing. See the UAL4679 flight status page for this flight to view local times or setup timezone preferences in your user account.

Time Position Orientation Groundspeed Altitude Reporting Facility
EDT Latitude Longitude Course Direction KTS km/h feet Rate Location/Type
Tue 15:59:30 40.6667 -74.1833 194° South 161 298 600  Level New York TRACON
Tue 16:00:30 40.6167 -74.2167 207° Southwest 226 418 2.200 1.950 Climbing New York TRACON
Tue 16:01:30 40.5667 -74.2667 217° Southwest 257 476 4.500 1.900 Climbing New York TRACON
Tue 16:02:00 40.3971 -74.1985 159° South  Level FlightAware Approximate
Tue 16:02:30 40.4833 -74.2500 171° South 254 470 6.000  Level New York TRACON
Tue 16:03:00 40.2977 -74.1508 194° South  Level FlightAware Approximate
Tue 16:03:30 40.4167 -74.2167 159° South 265 491 6.100  Level New York TRACON
Tue 16:04:00 40.1948 -74.1851 194° South  Level FlightAware Approximate
Tue 16:04:30 40.3500 -74.1833 159° South 256 475 6.400  Level New York TRACON
Tue 16:05:18 40.3044 -74.1647 163° South 276 512 7.800 1.868 Climbing New York Center
Tue 16:06:16 40.2289 -74.1883 193° South 276 512 9.700 1.729 Climbing New York Center
Tue 16:07:16 40.1489 -74.2114 192° South 281 520 11.200 1.240 Climbing New York Center
Tue 16:08:17 40.0689 -74.2347 193° South 312 578 12.200 889 Climbing New York Center
Tue 16:08:37 40.0350 -74.2419 189° South 352 652 12.400 1.041 Climbing Washington Center
Tue 16:10:18 39.9181 -74.4031 227° Southwest 337 624 14.300 990 Climbing New York Center
Tue 16:11:51 39.8047 -74.5328 221° Southwest 372 689 15.600 914 Climbing Washington Center
Tue 16:12:49 39.7242 -74.6256 222° Southwest 377 698 16.600 1.008 Climbing Washington Center
Tue 16:13:50 39.6417 -74.7183 221° Southwest 388 719 17.600 843 Climbing Washington Center
Tue 16:14:50 39.5528 -74.8192 221° Southwest 388 719 18.300 800 Climbing Washington Center
Tue 16:15:50 39.4719 -74.9167 223° Southwest 388 719 19.200 942 Climbing Washington Center
Tue 16:16:51 39.3911 -75.0089 221° Southwest 388 719 20.200 1.000 Climbing Washington Center
Tue 16:17:50 39.3061 -75.1033 221° Southwest 388 719 21.200 1.008 Climbing Washington Center
Tue 16:18:50 39.2000 -75.1578 202° Southwest 393 727 22.200 992 Climbing Washington Center
Tue 16:19:51 39.0919 -75.2011 197° South 399 739 23.200 958 Climbing Washington Center
Tue 16:20:49 38.9817 -75.2497 199° South 411 761 24.100 958 Climbing Washington Center
Tue 16:21:50 38.8753 -75.2903 197° South 411 761 25.100 992 Climbing Washington Center
Tue 16:22:50 38.7692 -75.3361 199° South 411 761 26.100 1.008 Climbing Washington Center
Tue 16:23:49 38.6628 -75.3817 198° South 406 752 27.100 958 Climbing Washington Center
Tue 16:24:49 38.5589 -75.4297 200° South 401 742 28.000 942 Climbing Washington Center
Tue 16:25:50 38.4714 -75.5069 215° Southwest 396 734 29.000 984 Climbing Washington Center
Tue 16:26:51 38.3836 -75.5811 214° Southwest 390 723 30.000 958 Climbing Washington Center
Tue 16:27:49 38.3044 -75.6472 213° Southwest 390 723 30.900 966 Climbing Washington Center
Tue 16:28:49 38.2169 -75.7239 215° Southwest 390 723 31.900 950 Climbing Washington Center
Tue 16:29:49 38.1292 -75.8003 214° Southwest 390 723 32.800 950 Climbing Washington Center
Tue 16:30:49 38.0394 -75.8792 215° Southwest 390 723 33.800 992 Climbing Washington Center
Tue 16:31:50 37.9536 -75.9553 215° Southwest 390 723 34.800 950 Climbing Washington Center
Tue 16:32:49 37.8678 -76.0283 214° Southwest 390 723 35.700 605 Climbing Washington Center
Tue 16:33:49 37.7758 -76.1172 217° Southwest 385 713 36.000 148 Climbing Washington Center
Tue 16:34:51 37.6900 -76.1822 211° Southwest 390 723 36.000  Level Washington Center
Tue 16:35:48 37.5956 -76.2628 214° Southwest 400 740 36.000  Level Washington Center
Tue 16:36:49 37.5014 -76.3458 215° Southwest 413 764 36.000  Level Washington Center
Tue 16:37:49 37.4050 -76.4258 213° Southwest 418 774 36.000  Level Washington Center
Tue 16:38:50 37.3083 -76.5083 214° Southwest 418 774 36.000  Level Washington Center
Tue 16:39:51 37.2139 -76.5881 214° Southwest 418 774 36.000  Level Washington Center
Tue 16:40:51 37.1172 -76.6703 214° Southwest 418 774 36.000  Level Washington Center
Tue 16:41:49 37.0225 -76.7547 215° Southwest 418 774 36.000  Level Washington Center
Tue 16:42:49 36.9258 -76.8364 214° Southwest 418 774 36.000  Level Washington Center
Tue 16:43:51 36.8289 -76.9153 213° Southwest 423 784 36.000  Level Washington Center
Tue 16:44:51 36.7300 -76.9967 213° Southwest 423 784 36.000  Level Washington Center
Tue 16:45:49 36.6369 -77.0856 217° Southwest 423 784 36.000  Level Washington Center
Tue 16:46:51 36.5442 -77.1742 218° Southwest 423 784 36.000  Level Washington Center
Tue 16:47:51 36.4511 -77.2628 217° Southwest 423 784 36.000  Level Washington Center
Tue 16:48:51 36.3558 -77.3508 217° Southwest 423 784 36.000  Level Washington Center
Tue 16:49:50 36.2628 -77.4389 217° Southwest 423 784 36.000  Level Washington Center
Tue 16:50:50 36.1717 -77.5244 217° Southwest 423 784 36.000  Level Washington Center
Tue 16:51:51 36.0786 -77.6119 217° Southwest 423 784 36.000  Level Washington Center
Tue 16:52:51 35.9831 -77.6994 217° Southwest 428 793 36.000  Level Washington Center
Tue 16:53:49 35.8814 -77.7814 213° Southwest 434 803 36.000  Level Washington Center
Tue 16:54:50 35.7819 -77.8581 212° Southwest 434 803 36.000  Level Washington Center
Tue 16:55:50 35.6825 -77.9369 213° Southwest 439 813 36.000  Level Washington Center
Tue 16:56:51 35.5786 -78.0156 212° Southwest 439 813 36.000  Level Washington Center
Tue 16:57:49 35.4767 -78.0967 213° Southwest 444 822 36.000  Level Washington Center
Tue 16:58:50 35.3728 -78.1750 212° Southwest 444 822 36.000  Level Washington Center
Tue 16:59:50 35.2711 -78.2531 212° Southwest 444 822 36.000  Level Washington Center
Tue 17:00:51 35.1689 -78.3361 214° Southwest 444 822 36.000  Level Washington Center
Tue 17:01:49 35.0650 -78.4139 212° Southwest 444 822 36.000  Level Washington Center
Tue 17:02:49 34.9628 -78.4939 213° Southwest 444 822 36.000  Level Washington Center
Tue 17:03:50 34.8586 -78.5736 212° Southwest 444 822 36.000  Level Washington Center
Tue 17:05:52 34.6503 -78.7308 212° Southwest 426 789 36.000  Level Jacksonville Center
Tue 17:06:52 34.5525 -78.8061 212° Southwest 421 779 36.000  Level Jacksonville Center
Tue 17:07:52 34.4550 -78.8864 214° Southwest 421 779 36.000  Level Jacksonville Center
Tue 17:08:52 34.3592 -78.9586 212° Southwest 421 779 36.000  Level Jacksonville Center
Tue 17:09:52 34.2656 -79.0308 213° Southwest 421 779 36.000  Level Jacksonville Center
Tue 17:10:52 34.1617 -79.1133 213° Southwest 416 771 36.000  Level Jacksonville Center
Tue 17:11:52 34.0697 -79.1847 213° Southwest 405 750 36.000  Level Jacksonville Center
Tue 17:12:52 33.9800 -79.2539 213° Southwest 405 750 36.000 -100 Level Jacksonville Center
Tue 17:13:52 33.8881 -79.3228 212° Southwest 400 740 35.800 -600 Descending Jacksonville Center
Tue 17:14:52 33.7942 -79.3964 213° Southwest 400 740 34.800 -900 Descending Jacksonville Center
Tue 17:15:52 33.7125 -79.4569 212° Southwest 401 742 34.000 -400 Descending Jacksonville Center
Tue 17:16:52 33.6164 -79.5331 213° Southwest 406 752 34.000  Level Jacksonville Center
Tue 17:17:52 33.5183 -79.6092 213° Southwest 412 763 34.000  Level Jacksonville Center
Tue 17:18:52 33.4158 -79.6875 213° Southwest 429 795 34.000  Level Jacksonville Center
Tue 17:19:52 33.3136 -79.7658 213° Southwest 434 803 34.000  Level Jacksonville Center
Tue 17:20:52 33.2131 -79.8414 212° Southwest 434 803 34.000 -450 Level Jacksonville Center
Tue 17:21:52 33.1147 -79.9167 213° Southwest 434 803 33.100 -950 Descending Jacksonville Center
Tue 17:22:52 33.0161 -79.9892 212° Southwest 422 782 32.100 -1.000 Descending Jacksonville Center
Tue 17:23:52 32.9197 -80.0617 212° Southwest 422 782 31.100 -1.000 Descending Jacksonville Center
Tue 17:24:52 32.8253 -80.1364 214° Southwest 422 782 30.100 -550 Descending Jacksonville Center
Tue 17:25:52 32.7269 -80.2108 212° Southwest 422 782 30.000 -50 Descending Jacksonville Center
Tue 17:26:52 32.6178 -80.2931 212° Southwest 422 782 30.000  Level Jacksonville Center
Tue 17:27:52 32.5150 -80.3697 212° Southwest 427 790 30.000  Level Jacksonville Center
Tue 17:28:52 32.4103 -80.4492 213° Southwest 433 801 30.000 -400 Level Jacksonville Center
Tue 17:29:52 32.3094 -80.5256 213° Southwest 433 801 29.200 -900 Descending Jacksonville Center
Tue 17:30:52 32.2064 -80.5994 211° Southwest 439 813 28.200 -1.000 Descending Jacksonville Center
Tue 17:31:52 32.1053 -80.6756 213° Southwest 433 801 27.200 -1.000 Descending Jacksonville Center
Tue 17:32:52 32.0044 -80.7539 213° Southwest 441 816 26.200 -1.000 Descending Jacksonville Center
Tue 17:33:52 31.9094 -80.8222 211° Southwest 441 816 25.200 -1.050 Descending Jacksonville Center
Tue 17:34:52 31.7961 -80.9053 212° Southwest 446 826 24.100 -1.050 Descending Jacksonville Center
Tue 17:35:52 31.7031 -80.9708 211° Southwest 446 826 23.100 -550 Descending Jacksonville Center
Tue 17:36:52 31.5917 -81.0536 212° Southwest 446 826 23.000 -500 Descending Jacksonville Center
Tue 17:37:52 31.4883 -81.1264 211° Southwest 446 826 22.100 -1.900 Descending Jacksonville Center
Tue 17:38:52 31.4014 -81.1911 212° Southwest 429 795 19.200 -2.950 Descending Jacksonville Center
Tue 17:39:52 31.3064 -81.2633 213° Southwest 413 764 16.200 -3.000 Descending Jacksonville Center
Tue 17:40:52 31.2153 -81.3281 211° Southwest 406 752 13.200 -3.149 Descending Jacksonville Center
Tue 17:41:33 31.1428 -81.3781 211° Southwest 370 686 10.900 -2.600 Descending Jacksonville Center
Tue 17:41:52 31.1261 -81.3903 212° Southwest 389 721 10.600 -1.167 Descending Jacksonville Center
Tue 17:42:09 31.0911 -81.4175 214° Southwest 361 668 10.200 -700 Descending Jacksonville Center
Tue 17:42:52 31.0392 -81.4522 210° Southwest 376 697 9.900 -175 Descending Jacksonville Center
Tue 17:43:52 30.9522 -81.5094 209° Southwest 371 687 9.900 -300 Level Jacksonville Center
Tue 17:44:52 30.8756 -81.5589 209° Southwest 350 649 9.300 -900 Descending Jacksonville Center
Tue 17:45:12 30.8422 -81.5786 207° Southwest 272 504 8.700 -1.600 Descending Jacksonville Center
Tue 17:45:52 30.8111 -81.6008 212° Southwest 308 570 7.700 -1.855 Descending Jacksonville Center
Tue 17:46:07 30.7842 -81.6183 209° Southwest 273 505 7.000 -1.800 Descending Jacksonville Center
Tue 17:46:52 30.7447 -81.6431 208° Southwest 286 529 5.900 -1.467 Descending Jacksonville Center

Login

Don't have an account? Register now (free) for customized features, flight alerts, and more!